In Rescue
 
Open Full Screen Window  High Contrast Mode
Wind Gusting 00 knots
06
July 24, 2024 3:43 PM CDT
Weather Information
Wind Direction
  080 °
Wind Speed
  06 kt (7 mph)
Wind Gust
  00 kt (0 mph)
Altimeter
30.18 in
Visibility
10 SM
Temperature
25° C
77° F
Dewpoint
17° C
63° F
Humidity
61%
1hr Rain Fall
00.00 in.
24hr Rain Fall
00.54 in.
Sky Condition
Broken @ 4,400 ft
Scattered @ 3,500 ft
VFR

METAR KOVL 242043Z AUTO 08006KT 10SM SCT035 BKN044 25/17 A3018 RMK AO2

FAA Disclaimer: The data displayed is for advisory purposes only and is not to be used for flight planning or operations.